createdAt,value
2023-03-04T00:00:12.443Z,53.31
2023-03-04T00:03:00.878Z,53.29
2023-03-04T00:05:31.262Z,53.40
2023-03-04T00:07:59.330Z,53.46
2023-03-04T00:10:27.545Z,53.46
2023-03-04T00:12:57.801Z,53.27
2023-03-04T00:15:26.183Z,53.34
2023-03-04T00:17:55.213Z,53.24
2023-03-04T00:20:24.122Z,53.17
2023-03-04T00:22:53.020Z,53.31
2023-03-04T00:25:22.289Z,53.02
2023-03-04T00:27:51.007Z,53.08
2023-03-04T00:30:20.143Z,52.96
2023-03-04T00:32:48.880Z,52.92
2023-03-04T00:35:17.318Z,52.98
2023-03-04T00:37:45.568Z,53.10
2023-03-04T00:40:14.317Z,52.92
2023-03-04T00:42:42.672Z,52.90
2023-03-04T00:45:11.139Z,52.90
2023-03-04T00:47:39.720Z,52.98
2023-03-04T00:50:09.493Z,52.66
2023-03-04T00:52:37.785Z,52.88
2023-03-04T00:55:09.209Z,52.87
2023-03-04T00:57:38.040Z,52.66
2023-03-04T01:00:11.478Z,52.75
2023-03-04T01:02:44.230Z,52.67
2023-03-04T01:05:13.422Z,52.78
2023-03-04T01:07:42.102Z,52.67
2023-03-04T01:10:13.114Z,52.87
2023-03-04T01:12:42.634Z,52.69
2023-03-04T01:15:14.252Z,52.69
2023-03-04T01:17:42.686Z,52.46
2023-03-04T01:20:12.164Z,52.54
2023-03-04T01:22:40.834Z,52.54
2023-03-04T01:25:10.676Z,52.54
2023-03-04T01:27:38.951Z,52.68
2023-03-04T01:30:07.861Z,52.47
2023-03-04T01:32:36.511Z,52.26
2023-03-04T01:35:05.519Z,52.41
2023-03-04T01:37:34.565Z,52.38
2023-03-04T01:40:02.961Z,52.63
2023-03-04T01:42:34.998Z,52.42
2023-03-04T01:45:06.398Z,52.41
2023-03-04T01:47:36.615Z,52.46
2023-03-04T01:50:11.627Z,52.29
2023-03-04T01:52:41.314Z,52.36
2023-03-04T01:55:18.264Z,52.19
2023-03-04T01:57:49.186Z,52.31
2023-03-04T02:00:25.725Z,52.27
2023-03-04T02:02:58.747Z,52.23
2023-03-04T02:05:28.715Z,52.30
2023-03-04T02:07:58.643Z,52.26
2023-03-04T02:10:28.265Z,52.28
2023-03-04T02:12:57.298Z,52.28
2023-03-04T02:15:26.392Z,52.25
2023-03-04T02:17:55.761Z,52.35
2023-03-04T02:20:54.589Z,52.29
2023-03-04T02:23:23.432Z,52.28
2023-03-04T02:26:12.077Z,51.99
2023-03-04T02:28:42.043Z,52.26
2023-03-04T02:31:35.835Z,52.14
2023-03-04T02:34:16.925Z,52.09
2023-03-04T02:36:47.069Z,51.98
2023-03-04T02:39:40.916Z,51.91
2023-03-04T02:42:10.972Z,52.09
2023-03-04T02:44:43.769Z,51.87
2023-03-04T02:47:18.037Z,52.01
2023-03-04T02:49:47.398Z,52.01
2023-03-04T02:52:22.742Z,52.02
2023-03-04T02:54:51.658Z,51.87
2023-03-04T02:57:20.555Z,51.96
2023-03-04T02:59:53.056Z,52.07
2023-03-04T03:02:24.101Z,52.14
2023-03-04T03:04:52.866Z,52.10
2023-03-04T03:07:22.265Z,52.19
2023-03-04T03:09:51.524Z,52.02
2023-03-04T03:12:20.449Z,51.96
2023-03-04T03:14:48.736Z,51.93
2023-03-04T03:17:21.237Z,51.87
2023-03-04T03:19:49.647Z,51.90
2023-03-04T03:22:18.421Z,51.77
2023-03-04T03:24:47.673Z,51.78
2023-03-04T03:27:17.127Z,51.81
2023-03-04T03:29:45.927Z,51.74
2023-03-04T03:32:14.966Z,52.07
2023-03-04T03:34:43.448Z,52.02
2023-03-04T03:37:13.491Z,51.70
2023-03-04T03:39:42.457Z,51.92
2023-03-04T03:42:11.688Z,51.81
2023-03-04T03:44:40.614Z,51.70
2023-03-04T03:47:09.315Z,51.82
2023-03-04T03:49:37.748Z,51.70
2023-03-04T03:52:08.550Z,51.85
2023-03-04T03:54:37.920Z,51.65
2023-03-04T03:57:07.431Z,51.61
2023-03-04T03:59:35.899Z,51.68
2023-03-04T04:02:04.750Z,51.67
2023-03-04T04:04:33.696Z,51.52
2023-03-04T04:07:05.690Z,51.77
2023-03-04T04:09:34.786Z,51.57
2023-03-04T04:12:07.845Z,51.59
2023-03-04T04:14:36.415Z,51.41
2023-03-04T04:17:04.735Z,51.55
2023-03-04T04:19:33.499Z,51.44
2023-03-04T04:22:02.290Z,51.53
2023-03-04T04:24:30.904Z,51.30
2023-03-04T04:27:00.012Z,51.29
2023-03-04T04:29:28.662Z,51.36
2023-03-04T04:31:57.198Z,51.32
2023-03-04T04:34:26.672Z,51.30
2023-03-04T04:36:55.021Z,51.38
2023-03-04T04:39:23.438Z,51.25
2023-03-04T04:41:51.650Z,51.21
2023-03-04T04:44:20.071Z,51.23
2023-03-04T04:46:48.421Z,51.14
2023-03-04T04:49:17.035Z,51.03
2023-03-04T04:51:46.697Z,51.04
2023-03-04T04:54:15.774Z,51.02
2023-03-04T04:56:44.079Z,50.99
2023-03-04T04:59:12.463Z,51.17
2023-03-04T05:01:41.597Z,51.20
2023-03-04T05:04:10.061Z,51.05
2023-03-04T05:06:39.585Z,51.02
2023-03-04T05:09:08.029Z,51.03
2023-03-04T05:11:36.888Z,51.03
2023-03-04T05:14:06.515Z,51.00
2023-03-04T05:16:36.781Z,51.29
2023-03-04T05:19:07.313Z,50.94
2023-03-04T05:21:36.159Z,50.97
2023-03-04T05:24:05.296Z,51.05
2023-03-04T05:26:34.399Z,51.01
2023-03-04T05:29:03.968Z,51.04
2023-03-04T05:31:34.673Z,51.01
2023-03-04T05:34:04.169Z,51.09
2023-03-04T05:36:33.439Z,51.16
2023-03-04T05:39:02.694Z,51.12
2023-03-04T05:41:31.167Z,51.12
2023-03-04T05:43:59.727Z,51.05
2023-03-04T05:46:28.530Z,51.14
2023-03-04T05:48:56.780Z,51.04
2023-03-04T05:51:25.624Z,51.12
2023-03-04T05:53:56.420Z,51.09
2023-03-04T05:56:25.116Z,50.90
2023-03-04T05:58:54.337Z,51.07
2023-03-04T06:01:23.226Z,50.90
2023-03-04T06:03:51.572Z,51.02
2023-03-04T06:06:20.010Z,50.79
2023-03-04T06:08:49.125Z,51.11
2023-03-04T06:11:17.515Z,51.07
2023-03-04T06:13:45.753Z,51.07
2023-03-04T06:16:14.033Z,51.09
2023-03-04T06:18:42.729Z,50.98
2023-03-04T06:21:11.649Z,51.20
2023-03-04T06:23:42.117Z,50.99
2023-03-04T06:26:15.457Z,50.98
2023-03-04T06:28:45.002Z,51.21
2023-03-04T06:31:13.460Z,51.06
2023-03-04T06:33:41.841Z,51.13
2023-03-04T06:36:10.756Z,51.09
2023-03-04T06:38:39.932Z,51.09
2023-03-04T06:41:10.902Z,51.26
2023-03-04T06:43:40.153Z,51.39
2023-03-04T06:46:09.549Z,51.21
2023-03-04T06:48:38.971Z,51.33
2023-03-04T06:51:11.879Z,51.21
2023-03-04T06:53:41.712Z,51.30
2023-03-04T06:56:12.548Z,51.41
2023-03-04T06:58:41.018Z,51.23
2023-03-04T07:01:18.383Z,51.29
2023-03-04T07:03:47.778Z,51.51
2023-03-04T07:06:19.513Z,51.58
2023-03-04T07:08:48.762Z,51.43
2023-03-04T07:11:18.717Z,51.56
2023-03-04T07:13:47.840Z,51.58
2023-03-04T07:16:19.631Z,51.54
2023-03-04T07:18:48.616Z,51.64
2023-03-04T07:21:18.389Z,51.51
2023-03-04T07:23:47.130Z,51.51
2023-03-04T07:26:17.385Z,51.71
2023-03-04T07:28:45.675Z,51.70
2023-03-04T07:31:23.454Z,51.71
2023-03-04T07:33:52.675Z,51.90
2023-03-04T07:36:21.771Z,51.84
2023-03-04T07:38:51.141Z,51.64
2023-03-04T07:41:19.467Z,51.83
2023-03-04T07:43:48.317Z,51.90
2023-03-04T07:46:19.154Z,51.84
2023-03-04T07:48:47.705Z,51.90
2023-03-04T07:51:19.749Z,51.89
2023-03-04T07:53:51.208Z,51.91
2023-03-04T07:56:23.845Z,52.13
2023-03-04T07:58:56.434Z,52.07
2023-03-04T08:01:34.190Z,52.26
2023-03-04T08:04:04.951Z,52.28
2023-03-04T08:06:34.650Z,52.40
2023-03-04T08:09:06.583Z,52.30
2023-03-04T08:11:36.560Z,52.26
2023-03-04T08:14:04.922Z,52.31
2023-03-04T08:16:33.679Z,52.43
2023-03-04T08:19:04.366Z,52.52
2023-03-04T08:21:33.937Z,52.34
2023-03-04T08:24:08.949Z,52.66
2023-03-04T08:26:43.628Z,52.58
2023-03-04T08:29:21.721Z,52.62
2023-03-04T08:31:51.600Z,52.75
2023-03-04T08:34:22.254Z,52.58
2023-03-04T08:36:50.864Z,52.57
2023-03-04T08:39:20.205Z,52.56
2023-03-04T08:41:49.083Z,52.66
2023-03-04T08:44:17.365Z,52.59
2023-03-04T08:46:45.870Z,52.55
2023-03-04T08:49:15.273Z,52.28
2023-03-04T08:51:45.509Z,52.60
2023-03-04T08:54:13.570Z,52.29
2023-03-04T08:56:42.321Z,52.38
2023-03-04T08:59:11.639Z,52.50
2023-03-04T09:01:40.138Z,52.49
2023-03-04T09:04:08.578Z,52.59
2023-03-04T09:06:36.922Z,52.67
2023-03-04T09:09:05.269Z,52.95
2023-03-04T09:11:33.572Z,53.14
2023-03-04T09:14:02.307Z,53.37
2023-03-04T09:16:31.342Z,53.74
2023-03-04T09:19:00.757Z,53.96
2023-03-04T09:21:29.642Z,54.40
2023-03-04T09:23:58.598Z,54.46
2023-03-04T09:26:29.906Z,54.83
2023-03-04T09:29:00.669Z,54.94
2023-03-04T09:31:30.260Z,55.09
2023-03-04T09:34:00.173Z,55.16
2023-03-04T09:36:29.317Z,55.11
2023-03-04T09:39:02.002Z,55.03
2023-03-04T09:41:47.195Z,55.10
2023-03-04T09:44:24.289Z,55.18
2023-03-04T09:46:56.019Z,55.15
2023-03-04T09:49:25.541Z,55.10
2023-03-04T09:52:09.826Z,55.00
2023-03-04T09:54:55.727Z,55.04
2023-03-04T09:57:40.881Z,54.98
2023-03-04T10:00:10.340Z,55.06
2023-03-04T10:03:04.495Z,54.97
2023-03-04T10:05:41.575Z,54.91
2023-03-04T10:08:31.363Z,54.91
2023-03-04T10:11:02.337Z,54.84
2023-03-04T10:14:16.487Z,54.83
2023-03-04T10:16:52.401Z,54.84
2023-03-04T10:19:23.798Z,54.45
2023-03-04T10:21:52.834Z,54.14
2023-03-04T10:24:28.908Z,53.91
2023-03-04T10:27:11.657Z,53.71
2023-03-04T10:29:40.453Z,53.61
2023-03-04T10:32:18.163Z,53.51
2023-03-04T10:34:47.307Z,53.49
2023-03-04T10:37:16.352Z,53.56
2023-03-04T10:39:46.854Z,53.64
2023-03-04T10:42:16.350Z,53.61
2023-03-04T10:44:56.560Z,53.75
2023-03-04T10:47:27.756Z,53.65
2023-03-04T10:49:58.636Z,53.73
2023-03-04T10:52:28.974Z,53.66
2023-03-04T10:55:02.859Z,53.71
2023-03-04T10:58:06.623Z,53.66
2023-03-04T11:00:37.132Z,53.63
2023-03-04T11:03:32.507Z,53.51
2023-03-04T11:06:22.233Z,53.46
2023-03-04T11:08:58.451Z,53.35
2023-03-04T11:11:44.877Z,53.28
2023-03-04T11:14:25.196Z,53.24
2023-03-04T11:17:02.307Z,53.25
2023-03-04T11:19:39.791Z,53.27
2023-03-04T11:22:15.022Z,53.24
2023-03-04T11:24:49.649Z,53.20
2023-03-04T11:27:31.208Z,53.22
2023-03-04T11:30:39.569Z,53.24
2023-03-04T11:33:43.026Z,53.29
2023-03-04T11:37:04.705Z,53.23
2023-03-04T11:39:38.816Z,53.34
2023-03-04T11:42:46.144Z,53.32
2023-03-04T11:45:43.845Z,53.32
2023-03-04T11:48:31.012Z,53.40
2023-03-04T11:51:47.913Z,53.33
2023-03-04T11:55:02.571Z,53.31
2023-03-04T11:57:33.546Z,53.22
2023-03-04T12:00:16.727Z,53.28
2023-03-04T12:03:13.228Z,53.21
2023-03-04T12:05:45.138Z,53.26
2023-03-04T12:08:44.466Z,53.39
2023-03-04T12:12:02.536Z,53.24
2023-03-04T12:14:44.450Z,53.31
2023-03-04T12:17:44.526Z,53.28
2023-03-04T12:20:21.772Z,53.38
2023-03-04T12:23:01.943Z,53.29
2023-03-04T12:26:23.282Z,53.30
2023-03-04T12:29:36.587Z,53.13
2023-03-04T12:32:14.736Z,53.14
2023-03-04T12:34:52.114Z,53.02
2023-03-04T12:37:37.655Z,53.07
2023-03-04T12:40:27.486Z,53.09
2023-03-04T12:43:14.460Z,53.04
2023-03-04T12:46:04.787Z,52.93
2023-03-04T12:48:45.811Z,52.92
2023-03-04T12:51:41.404Z,52.96
2023-03-04T12:54:32.271Z,52.88
2023-03-04T12:57:10.256Z,52.99
2023-03-04T13:00:14.562Z,53.16
2023-03-04T13:03:09.058Z,53.10
2023-03-04T13:06:05.026Z,52.96
2023-03-04T13:09:00.156Z,52.90
2023-03-04T13:11:28.507Z,52.74
2023-03-04T13:14:15.390Z,52.75
2023-03-04T13:17:01.854Z,52.68
2023-03-04T13:19:48.794Z,52.55
2023-03-04T13:22:32.573Z,52.42
2023-03-04T13:25:33.747Z,52.38
2023-03-04T13:28:13.919Z,52.48
2023-03-04T13:31:04.835Z,52.51
2023-03-04T13:33:33.669Z,52.67
2023-03-04T13:36:25.793Z,52.67
2023-03-04T13:39:14.571Z,52.74
2023-03-04T13:41:54.718Z,52.61
2023-03-04T13:44:57.857Z,52.67
2023-03-04T13:47:43.730Z,52.46
2023-03-04T13:50:37.483Z,52.37
2023-03-04T13:53:24.106Z,52.39
2023-03-04T13:56:25.438Z,52.36
2023-03-04T13:59:08.925Z,52.38
2023-03-04T14:02:17.734Z,52.46
2023-03-04T14:04:56.951Z,52.79
2023-03-04T14:07:29.724Z,52.86
2023-03-04T14:10:08.848Z,53.05
2023-03-04T14:12:56.511Z,53.19
2023-03-04T14:15:28.640Z,53.39
2023-03-04T14:17:59.616Z,53.47
2023-03-04T14:20:32.217Z,53.41
2023-03-04T14:23:05.157Z,53.30
2023-03-04T14:25:37.067Z,53.32
2023-03-04T14:28:14.303Z,53.22
2023-03-04T14:30:45.223Z,52.91
2023-03-04T14:33:29.004Z,52.82
2023-03-04T14:36:02.769Z,52.62
2023-03-04T14:38:38.427Z,52.32
2023-03-04T14:41:23.234Z,52.14
2023-03-04T14:44:12.467Z,51.92
2023-03-04T14:47:08.376Z,51.73
2023-03-04T14:49:38.438Z,51.46
2023-03-04T14:52:07.391Z,51.12
2023-03-04T14:54:41.888Z,50.88
2023-03-04T14:57:21.201Z,50.71
2023-03-04T14:59:52.192Z,50.58
2023-03-04T15:02:38.307Z,50.84
2023-03-04T15:05:36.578Z,50.78
2023-03-04T15:08:21.192Z,50.87
2023-03-04T15:11:06.174Z,50.56
2023-03-04T15:13:42.094Z,49.32
2023-03-04T15:16:13.555Z,48.70
2023-03-04T15:19:05.882Z,47.35
2023-03-04T15:21:40.316Z,46.56
2023-03-04T15:24:11.383Z,45.98
2023-03-04T15:26:42.651Z,45.70
2023-03-04T15:29:17.688Z,45.42
2023-03-04T15:31:51.996Z,44.95
2023-03-04T15:34:20.793Z,44.54
2023-03-04T15:36:51.580Z,43.96
2023-03-04T15:39:22.005Z,43.75
2023-03-04T15:41:51.058Z,43.49
2023-03-04T15:44:19.401Z,42.97
2023-03-04T15:46:47.728Z,42.38
2023-03-04T15:49:16.909Z,41.90
2023-03-04T15:51:45.646Z,41.49
2023-03-04T15:54:14.356Z,41.00
2023-03-04T15:56:43.166Z,40.81
2023-03-04T15:59:14.504Z,40.67
2023-03-04T16:01:43.873Z,40.54
2023-03-04T16:04:17.304Z,40.54
2023-03-04T16:06:48.863Z,40.18
2023-03-04T16:09:21.213Z,40.22
2023-03-04T16:11:50.370Z,40.26
2023-03-04T16:14:18.783Z,40.23
2023-03-04T16:16:48.201Z,40.08
2023-03-04T16:19:17.562Z,39.96
2023-03-04T16:21:46.838Z,40.20
2023-03-04T16:24:19.232Z,40.20
2023-03-04T16:26:48.061Z,40.76
2023-03-04T16:29:16.985Z,41.24
2023-03-04T16:31:45.302Z,41.65
2023-03-04T16:34:14.837Z,42.11
2023-03-04T16:36:43.425Z,42.41
2023-03-04T16:39:22.809Z,42.50
2023-03-04T16:41:53.532Z,42.62
2023-03-04T16:44:23.268Z,42.56
2023-03-04T16:46:53.393Z,42.63
2023-03-04T16:49:22.037Z,42.74
2023-03-04T16:51:51.269Z,42.68
2023-03-04T16:54:30.500Z,42.65
2023-03-04T16:56:59.360Z,42.66
2023-03-04T16:59:29.538Z,42.64
2023-03-04T17:01:58.806Z,42.73
2023-03-04T17:04:28.122Z,42.86
2023-03-04T17:06:58.009Z,42.87
2023-03-04T17:09:26.694Z,42.93
2023-03-04T17:11:57.814Z,42.93
2023-03-04T17:14:28.718Z,43.03
2023-03-04T17:16:57.598Z,43.07
2023-03-04T17:19:26.548Z,43.11
2023-03-04T17:21:59.809Z,43.16
2023-03-04T17:24:29.057Z,43.34
2023-03-04T17:26:57.322Z,43.43
2023-03-04T17:29:26.536Z,43.71
2023-03-04T17:31:55.272Z,43.76
2023-03-04T17:34:23.645Z,43.86
2023-03-04T17:36:52.614Z,43.81
2023-03-04T17:39:21.595Z,44.00
2023-03-04T17:41:51.389Z,44.15
2023-03-04T17:44:20.266Z,44.14
2023-03-04T17:46:49.056Z,44.17
2023-03-04T17:49:17.643Z,44.27
2023-03-04T17:51:46.556Z,44.29
2023-03-04T17:54:14.922Z,44.40
2023-03-04T17:56:44.613Z,44.46
2023-03-04T17:59:17.410Z,44.52
2023-03-04T18:01:46.309Z,44.61
2023-03-04T18:04:15.106Z,44.57
2023-03-04T18:06:43.267Z,44.63
2023-03-04T18:09:11.528Z,44.74
2023-03-04T18:11:42.223Z,44.77
2023-03-04T18:14:12.899Z,44.85
2023-03-04T18:16:41.379Z,44.88
2023-03-04T18:19:09.834Z,44.89
2023-03-04T18:21:38.500Z,44.99
2023-03-04T18:24:10.072Z,45.05
2023-03-04T18:26:39.039Z,45.03
2023-03-04T18:29:07.204Z,45.00
2023-03-04T18:31:37.061Z,45.04
2023-03-04T18:34:06.608Z,45.15
2023-03-04T18:36:34.791Z,45.20
2023-03-04T18:39:07.595Z,45.21
2023-03-04T18:41:36.452Z,45.34
2023-03-04T18:44:06.049Z,45.35
2023-03-04T18:46:54.473Z,45.40
2023-03-04T18:49:23.873Z,45.43
2023-03-04T18:51:53.842Z,45.47
2023-03-04T18:54:24.632Z,45.71
2023-03-04T18:56:59.943Z,46.19
2023-03-04T18:59:37.233Z,46.49
2023-03-04T19:02:20.242Z,46.68
2023-03-04T19:04:50.667Z,46.95
2023-03-04T19:07:18.879Z,47.20
2023-03-04T19:09:47.581Z,47.66
2023-03-04T19:12:15.842Z,47.95
2023-03-04T19:14:45.346Z,48.33
2023-03-04T19:17:14.686Z,48.48
2023-03-04T19:19:43.024Z,48.79
2023-03-04T19:22:12.928Z,49.08
2023-03-04T19:24:41.962Z,49.05
2023-03-04T19:27:10.237Z,49.08
2023-03-04T19:29:38.958Z,49.32
2023-03-04T19:32:07.876Z,49.31
2023-03-04T19:34:36.445Z,49.27
2023-03-04T19:37:05.027Z,49.22
2023-03-04T19:39:35.982Z,49.32
2023-03-04T19:42:04.468Z,49.40
2023-03-04T19:44:32.932Z,49.47
2023-03-04T19:47:01.778Z,49.59
2023-03-04T19:49:35.267Z,49.55
2023-03-04T19:52:04.922Z,49.68
2023-03-04T19:54:34.073Z,49.80
2023-03-04T19:57:04.812Z,49.83
2023-03-04T19:59:34.808Z,49.83
2023-03-04T20:02:03.300Z,49.72
2023-03-04T20:04:31.925Z,49.79
2023-03-04T20:07:00.769Z,49.87
2023-03-04T20:09:28.971Z,49.65
2023-03-04T20:11:59.290Z,49.41
2023-03-04T20:14:28.168Z,49.15
2023-03-04T20:17:02.618Z,49.02
2023-03-04T20:19:32.215Z,48.80
2023-03-04T20:22:00.973Z,48.80
2023-03-04T20:24:29.651Z,48.75
2023-03-04T20:26:58.355Z,48.62
2023-03-04T20:29:29.071Z,48.57
2023-03-04T20:31:58.427Z,48.40
2023-03-04T20:34:27.220Z,48.26
2023-03-04T20:36:55.286Z,48.33
2023-03-04T20:39:29.615Z,48.09
2023-03-04T20:41:59.548Z,48.17
2023-03-04T20:44:28.858Z,48.10
2023-03-04T20:46:57.492Z,48.00
2023-03-04T20:49:29.037Z,47.88
2023-03-04T20:52:03.334Z,47.76
2023-03-04T20:54:33.058Z,47.68
2023-03-04T20:57:01.781Z,47.67
2023-03-04T20:59:30.408Z,47.56
2023-03-04T21:02:00.208Z,47.63
2023-03-04T21:04:28.929Z,47.40
2023-03-04T21:06:57.744Z,47.49
2023-03-04T21:09:27.516Z,47.63
2023-03-04T21:11:57.092Z,47.65
2023-03-04T21:14:31.830Z,47.70
2023-03-04T21:17:02.847Z,47.64
2023-03-04T21:19:36.366Z,47.70
2023-03-04T21:22:05.006Z,47.85
2023-03-04T21:24:35.368Z,47.82
2023-03-04T21:27:04.897Z,47.81
2023-03-04T21:29:34.604Z,47.90
2023-03-04T21:32:23.889Z,47.89
2023-03-04T21:34:54.720Z,48.11
2023-03-04T21:37:24.815Z,48.09
2023-03-04T21:39:55.245Z,48.27
2023-03-04T21:42:23.916Z,48.45
2023-03-04T21:44:53.443Z,48.42
2023-03-04T21:47:22.794Z,49.19
2023-03-04T21:49:51.508Z,49.86
2023-03-04T21:52:21.927Z,50.14
2023-03-04T21:54:50.698Z,50.43
2023-03-04T21:57:19.816Z,50.67
2023-03-04T21:59:48.712Z,50.89
2023-03-04T22:02:20.783Z,51.11
2023-03-04T22:04:49.041Z,51.24
2023-03-04T22:07:18.339Z,51.22
2023-03-04T22:09:47.254Z,51.10
2023-03-04T22:12:18.300Z,51.02
2023-03-04T22:14:48.005Z,50.98
2023-03-04T22:17:16.793Z,50.81
2023-03-04T22:19:46.240Z,50.52
2023-03-04T22:22:18.123Z,50.56
2023-03-04T22:24:46.588Z,50.40
2023-03-04T22:27:16.039Z,50.23
2023-03-04T22:29:44.925Z,50.17
2023-03-04T22:32:15.540Z,50.28
2023-03-04T22:34:43.924Z,50.22
2023-03-04T22:37:12.792Z,50.24
2023-03-04T22:39:41.634Z,50.22
2023-03-04T22:42:11.887Z,50.00
2023-03-04T22:44:40.233Z,50.03
2023-03-04T22:47:09.567Z,50.10
2023-03-04T22:49:42.337Z,50.10
2023-03-04T22:52:11.626Z,50.04
2023-03-04T22:54:39.875Z,49.93
2023-03-04T22:57:08.055Z,50.10
2023-03-04T22:59:36.478Z,49.92
2023-03-04T23:02:05.277Z,49.87
2023-03-04T23:04:33.958Z,49.79
2023-03-04T23:07:03.153Z,49.84
2023-03-04T23:09:32.360Z,49.82
2023-03-04T23:12:01.584Z,49.73
2023-03-04T23:14:30.064Z,49.55
2023-03-04T23:16:58.530Z,49.60
2023-03-04T23:19:27.536Z,49.54
2023-03-04T23:21:56.817Z,49.55
2023-03-04T23:24:26.829Z,49.49
2023-03-04T23:26:56.450Z,49.43
2023-03-04T23:29:24.733Z,49.56
2023-03-04T23:31:53.084Z,49.46
2023-03-04T23:34:22.361Z,49.23
2023-03-04T23:36:50.849Z,49.44
2023-03-04T23:39:21.218Z,49.34
2023-03-04T23:41:50.326Z,49.38
2023-03-04T23:44:19.020Z,49.32
2023-03-04T23:46:47.331Z,49.43
2023-03-04T23:49:18.105Z,49.24
2023-03-04T23:51:47.069Z,49.17
2023-03-04T23:54:15.958Z,49.08
2023-03-04T23:56:44.851Z,49.14
2023-03-04T23:59:13.470Z,49.14
